Time;durP1;ratioP1;P1;durP2;ratioP2;P2;SDS_P1;SDS_P2;PMS_P1;PMS_P2;Temp;Humidity;BMP_temperature;BMP_pressure;BME280_temperature;BME280_humidity;BME280_pressure;Samples;Min_cycle;Max_cycle;Signal;HPM_P1;HPM_P2
2022/03/07 00:01:30;;;;;;;30.17;12.60;;;4.60;98.90;;;;;;5076518;28;20032;-69
2022/03/07 00:03:57;;;;;;;24.55;12.32;;;4.60;99.10;;;;;;5076748;28;20044;-69
2022/03/07 00:06:23;;;;;;;24.45;11.52;;;4.40;99.70;;;;;;5076366;28;20488;-69
2022/03/07 00:08:49;;;;;;;28.73;11.98;;;4.50;99.60;;;;;;5076352;28;20187;-69
2022/03/07 00:11:16;;;;;;;25.25;11.93;;;4.60;99.40;;;;;;5076317;28;20107;-71
2022/03/07 00:13:43;;;;;;;27.25;11.65;;;4.50;99.40;;;;;;5076271;28;20082;-70
2022/03/07 00:16:09;;;;;;;25.75;12.30;;;4.50;99.50;;;;;;5076392;28;20027;-69
2022/03/07 00:18:35;;;;;;;29.55;12.90;;;4.40;99.40;;;;;;5076255;28;20071;-69
2022/03/07 00:21:01;;;;;;;24.15;11.60;;;4.30;99.90;;;;;;5076095;28;20044;-69
2022/03/07 00:23:27;;;;;;;27.77;11.88;;;4.40;99.70;;;;;;5058129;28;20021;-69
2022/03/07 00:25:53;;;;;;;21.15;9.23;;;4.30;99.80;;;;;;5076046;28;20544;-69
2022/03/07 00:28:19;;;;;;;30.33;11.00;;;4.20;99.90;;;;;;5076030;28;20028;-69
2022/03/07 00:30:45;;;;;;;17.35;8.63;;;4.30;99.90;;;;;;5075998;28;20020;-69
2022/03/07 00:33:13;;;;;;;13.32;8.18;;;4.10;99.90;;;;;;5075911;28;20392;-69
2022/03/07 00:35:39;;;;;;;9.85;6.22;;;4.20;99.90;;;;;;5075961;28;20492;-69
2022/03/07 00:38:05;;;;;;;11.95;6.88;;;4.20;99.90;;;;;;5075531;28;20067;-69
2022/03/07 00:40:32;;;;;;;10.75;6.70;;;4.00;99.90;;;;;;5076190;28;20044;-69
2022/03/07 00:42:57;;;;;;;11.43;7.07;;;4.10;99.90;;;;;;5075856;28;20047;-69
2022/03/07 00:45:23;;;;;;;11.90;7.03;;;4.00;99.90;;;;;;5075783;28;20052;-69
2022/03/07 00:47:49;;;;;;;13.95;7.40;;;3.60;99.90;;;;;;5057717;28;20024;-68
2022/03/07 00:50:14;;;;;;;11.88;6.70;;;3.60;99.90;;;;;;5075623;28;20140;-69
2022/03/07 00:52:40;;;;;;;16.83;8.38;;;3.70;99.90;;;;;;5057413;28;20028;-69
2022/03/07 00:55:07;;;;;;;12.52;7.35;;;3.60;99.90;;;;;;5075808;28;20045;-69
2022/03/07 00:57:33;;;;;;;11.98;7.60;;;3.70;99.90;;;;;;5057591;28;20469;-69
2022/03/07 00:59:58;;;;;;;15.85;7.60;;;3.80;99.90;;;;;;5057577;28;20029;-69
2022/03/07 01:02:25;;;;;;;15.80;7.88;;;3.70;99.90;;;;;;5056886;28;20024;-69
2022/03/07 01:04:51;;;;;;;18.02;7.25;;;3.50;99.90;;;;;;5057540;28;20039;-69
2022/03/07 01:07:16;;;;;;;10.20;7.03;;;3.70;99.90;;;;;;5075030;28;20107;-70
2022/03/07 01:09:42;;;;;;;12.35;7.00;;;3.70;99.90;;;;;;5075460;28;20093;-69
2022/03/07 01:12:09;;;;;;;14.15;7.70;;;3.60;99.90;;;;;;5057389;28;20376;-69
2022/03/07 01:14:35;;;;;;;12.45;7.28;;;3.20;99.90;;;;;;5057283;28;20378;-69
2022/03/07 01:17:00;;;;;;;17.63;8.52;;;3.20;99.90;;;;;;5075082;28;20097;-69
2022/03/07 01:19:26;;;;;;;13.32;7.53;;;3.30;99.90;;;;;;5075230;28;20056;-69
2022/03/07 01:21:52;;;;;;;14.15;8.00;;;3.40;99.90;;;;;;5056595;28;20631;-69
2022/03/07 01:24:18;;;;;;;12.50;8.50;;;3.40;99.90;;;;;;5075054;28;20103;-69
2022/03/07 01:26:45;;;;;;;15.23;7.82;;;3.30;99.90;;;;;;5074842;28;20451;-69
2022/03/07 01:29:11;;;;;;;13.00;7.57;;;3.30;99.90;;;;;;5075031;28;20044;-69
2022/03/07 01:31:37;;;;;;;20.73;8.25;;;3.00;99.90;;;;;;5075051;28;20063;-69
2022/03/07 01:34:04;;;;;;;14.63;7.80;;;3.00;99.90;;;;;;5056829;28;20041;-69
2022/03/07 01:36:29;;;;;;;18.60;8.27;;;3.20;99.90;;;;;;5074813;28;20024;-69
2022/03/07 01:38:55;;;;;;;14.45;8.85;;;2.70;99.90;;;;;;5074602;28;20381;-69
2022/03/07 01:41:21;;;;;;;14.40;8.88;;;2.70;99.90;;;;;;5074927;28;20021;-69
2022/03/07 01:43:47;;;;;;;15.18;8.32;;;2.70;99.90;;;;;;5074792;28;20033;-69
2022/03/07 01:46:13;;;;;;;16.40;8.77;;;2.70;99.90;;;;;;5056536;28;20029;-69
2022/03/07 01:48:39;;;;;;;16.17;7.63;;;2.70;99.90;;;;;;5056603;28;20086;-69
2022/03/07 01:51:07;;;;;;;17.70;8.32;;;2.50;99.90;;;;;;5056297;28;20449;-69
2022/03/07 01:53:33;;;;;;;12.80;8.52;;;2.60;99.90;;;;;;5056367;28;20059;-69
2022/03/07 01:56:01;;;;;;;17.30;8.95;;;2.60;99.90;;;;;;5056485;28;20031;-70
2022/03/07 01:58:28;;;;;;;17.50;8.75;;;2.60;99.90;;;;;;5056395;28;20032;-69
2022/03/07 02:00:53;;;;;;;14.43;8.38;;;2.60;99.90;;;;;;5056429;28;20439;-69
2022/03/07 02:03:21;;;;;;;16.23;8.63;;;2.70;99.90;;;;;;5056150;28;20070;-69
2022/03/07 02:05:48;;;;;;;16.95;8.52;;;2.70;99.90;;;;;;5055978;28;20523;-69
2022/03/07 02:08:19;;;;;;;15.20;8.50;;;2.80;99.90;;;;;;5056332;28;20025;-69
2022/03/07 02:10:53;;;;;;;11.93;7.78;;;2.80;99.90;;;;;;5056218;28;20576;-69
2022/03/07 02:13:21;;;;;;;16.40;10.05;;;2.90;99.90;;;;;;5055763;28;20115;-69
2022/03/07 02:15:57;;;;;;;18.45;8.70;;;3.00;99.90;;;;;;5055945;28;20020;-69
2022/03/07 02:18:29;;;;;;;16.45;8.82;;;3.10;99.90;;;;;;5055753;28;20064;-71
2022/03/07 02:21:10;;;;;;;12.38;8.27;;;3.10;99.90;;;;;;5056045;28;20040;-69
2022/03/07 02:23:43;;;;;;;16.80;8.73;;;3.10;99.90;;;;;;5055906;28;20142;-69
2022/03/07 02:26:14;;;;;;;16.52;8.88;;;3.00;99.90;;;;;;5055703;28;20025;-69
2022/03/07 02:28:43;;;;;;;16.88;10.45;;;2.80;99.90;;;;;;5055681;28;20035;-69
2022/03/07 02:31:11;;;;;;;16.52;9.38;;;3.00;99.90;;;;;;5055990;28;20434;-69
2022/03/07 02:33:37;;;;;;;17.60;10.45;;;2.70;99.90;;;;;;5055474;28;20052;-69
2022/03/07 02:36:04;;;;;;;19.40;9.98;;;2.60;99.90;;;;;;5055614;28;20020;-69
2022/03/07 02:38:30;;;;;;;20.17;11.60;;;2.70;99.90;;;;;;5044867;28;20525;-69
2022/03/07 02:40:55;;;;;;;25.30;11.23;;;2.60;99.90;;;;;;5035818;28;20140;-69
2022/03/07 02:43:21;;;;;;;23.45;12.05;;;2.60;99.90;;;;;;5035617;28;20112;-69
2022/03/07 02:45:47;;;;;;;21.15;12.02;;;2.90;99.90;;;;;;5035467;28;20025;-69
2022/03/07 02:48:14;;;;;;;21.38;11.88;;;2.80;99.90;;;;;;5035566;28;20025;-69
2022/03/07 02:50:40;;;;;;;29.27;13.77;;;2.30;99.90;;;;;;5035181;28;20029;-69
2022/03/07 02:53:06;;;;;;;18.67;11.48;;;2.40;99.90;;;;;;5035493;28;20404;-70
2022/03/07 02:55:32;;;;;;;23.10;12.25;;;2.10;99.90;;;;;;5035529;28;20037;-69
2022/03/07 02:57:59;;;;;;;21.08;12.50;;;2.10;99.90;;;;;;5057143;28;20036;-68
2022/03/07 03:00:25;;;;;;;20.85;13.25;;;2.20;99.90;;;;;;5073186;28;20025;-69
2022/03/07 03:02:51;;;;;;;18.55;11.82;;;2.20;99.90;;;;;;5073002;28;20024;-69
2022/03/07 03:05:17;;;;;;;22.23;13.10;;;2.20;99.90;;;;;;5073147;28;20500;-69
2022/03/07 03:07:43;;;;;;;29.52;13.98;;;2.40;99.90;;;;;;5073200;28;20033;-70
2022/03/07 03:10:09;;;;;;;25.58;14.43;;;2.30;99.90;;;;;;5073044;28;20039;-69
2022/03/07 03:12:35;;;;;;;25.25;15.02;;;2.20;99.90;;;;;;5073069;28;20043;-69
2022/03/07 03:15:01;;;;;;;25.60;14.55;;;2.10;99.90;;;;;;5072809;28;20044;-70
2022/03/07 03:17:26;;;;;;;21.30;13.63;;;2.00;99.90;;;;;;5072925;28;20021;-69
2022/03/07 03:19:54;;;;;;;22.20;13.77;;;1.80;99.90;;;;;;5072843;28;20435;-69
2022/03/07 03:22:20;;;;;;;19.17;12.27;;;1.70;99.90;;;;;;5072768;28;20036;-69
2022/03/07 03:24:47;;;;;;;19.13;11.18;;;1.60;99.90;;;;;;5054934;28;20086;-69
2022/03/07 03:27:13;;;;;;;17.60;11.07;;;1.70;99.90;;;;;;5072332;28;20032;-69
2022/03/07 03:29:39;;;;;;;19.52;10.60;;;1.60;99.90;;;;;;5072902;28;20020;-69
2022/03/07 03:32:05;;;;;;;18.27;10.73;;;1.60;99.90;;;;;;5072634;28;20032;-69
2022/03/07 03:34:31;;;;;;;18.70;9.98;;;1.60;99.90;;;;;;5072581;28;20419;-70
2022/03/07 03:36:57;;;;;;;17.77;10.43;;;1.80;99.90;;;;;;5072650;28;20021;-69
2022/03/07 03:39:23;;;;;;;18.58;9.70;;;2.00;99.90;;;;;;5072904;28;20120;-69
2022/03/07 03:41:49;;;;;;;15.57;9.10;;;2.10;99.90;;;;;;5072678;28;20430;-69
2022/03/07 03:44:15;;;;;;;16.77;10.40;;;2.10;99.90;;;;;;5072884;28;20036;-70
2022/03/07 03:46:40;;;;;;;20.25;9.40;;;2.00;99.90;;;;;;5072411;28;20028;-69
2022/03/07 03:49:06;;;;;;;17.35;9.75;;;2.10;99.90;;;;;;5072690;28;20095;-70
2022/03/07 03:51:34;;;;;;;21.98;10.02;;;2.20;99.90;;;;;;5072566;28;20044;-69
2022/03/07 03:54:00;;;;;;;15.27;9.77;;;2.20;99.90;;;;;;5072625;28;20060;-69
2022/03/07 03:56:26;;;;;;;17.15;10.57;;;2.20;99.90;;;;;;5072449;28;20385;-69
2022/03/07 03:58:52;;;;;;;19.05;10.32;;;2.10;99.90;;;;;;5072673;28;20028;-70
2022/03/07 04:01:18;;;;;;;16.08;10.35;;;2.00;99.90;;;;;;5054351;28;20028;-69
2022/03/07 04:03:44;;;;;;;21.23;11.18;;;1.80;99.90;;;;;;5054705;28;20117;-69
2022/03/07 04:06:10;;;;;;;16.10;10.60;;;1.80;99.90;;;;;;5072384;28;20029;-69
2022/03/07 04:08:41;;;;;;;15.15;9.00;;;1.70;99.90;;;;;;5072544;28;20037;-69
2022/03/07 04:11:10;;;;;;;18.88;11.07;;;1.60;99.90;;;;;;5072332;28;20111;-69
2022/03/07 04:13:35;;;;;;;15.23;9.60;;;1.60;99.90;;;;;;5072373;28;20107;-69
2022/03/07 04:16:02;;;;;;;15.38;10.00;;;1.60;99.90;;;;;;5071933;28;20056;-69
2022/03/07 04:18:27;;;;;;;19.92;9.93;;;1.60;99.90;;;;;;5054625;28;20070;-70
2022/03/07 04:20:53;;;;;;;22.15;10.10;;;1.60;99.90;;;;;;5072325;28;20037;-69
2022/03/07 04:23:21;;;;;;;16.48;10.07;;;1.70;99.90;;;;;;5072152;28;20028;-69
2022/03/07 04:25:49;;;;;;;20.60;11.25;;;1.80;99.90;;;;;;5072313;28;20024;-70
2022/03/07 04:28:15;;;;;;;17.45;10.52;;;2.10;99.90;;;;;;5071940;28;20409;-69
2022/03/07 04:30:42;;;;;;;17.77;10.48;;;2.20;99.90;;;;;;5071987;28;20115;-69
2022/03/07 04:33:08;;;;;;;17.20;10.65;;;2.00;99.90;;;;;;5072128;28;20059;-69
2022/03/07 04:35:35;;;;;;;13.82;10.50;;;1.90;99.90;;;;;;5072311;28;20056;-69
2022/03/07 04:38:01;;;;;;;17.40;10.10;;;1.80;99.90;;;;;;5056611;28;20078;-69
2022/03/07 04:40:28;;;;;;;16.38;10.38;;;1.90;99.90;;;;;;5076115;28;20043;-69
2022/03/07 04:42:55;;;;;;;22.67;11.55;;;1.60;99.90;;;;;;5075693;28;20036;-69
2022/03/07 04:45:22;;;;;;;21.48;11.30;;;1.70;99.90;;;;;;5075456;28;20056;-69
2022/03/07 04:47:49;;;;;;;17.38;10.05;;;1.70;99.90;;;;;;5057907;28;20031;-69
2022/03/07 04:50:15;;;;;;;24.63;10.98;;;1.50;99.90;;;;;;5075838;28;20035;-69
2022/03/07 04:52:42;;;;;;;28.92;10.82;;;1.30;99.90;;;;;;5076078;28;20025;-70
2022/03/07 04:55:12;;;;;;;17.27;10.80;;;1.20;99.90;;;;;;5075521;28;20496;-70
2022/03/07 04:57:39;;;;;;;18.52;11.13;;;1.30;99.90;;;;;;5075335;28;20477;-69
2022/03/07 05:00:08;;;;;;;18.55;10.40;;;1.10;99.90;;;;;;5075509;28;20033;-69
2022/03/07 05:02:34;;;;;;;17.13;10.55;;;1.30;99.90;;;;;;5075396;28;20036;-69
2022/03/07 05:05:00;;;;;;;15.40;9.80;;;1.20;99.90;;;;;;5075404;28;20366;-69
2022/03/07 05:07:25;;;;;;;18.23;10.75;;;1.00;99.90;;;;;;5075319;28;20024;-69
2022/03/07 05:09:51;;;;;;;21.70;10.90;;;1.00;99.90;;;;;;5075386;28;20376;-70
2022/03/07 05:12:17;;;;;;;19.38;10.98;;;1.20;99.90;;;;;;5074980;28;20035;-70
2022/03/07 05:14:43;;;;;;;19.20;11.52;;;1.00;99.90;;;;;;5075171;28;20033;-69
2022/03/07 05:17:08;;;;;;;24.95;11.95;;;1.10;99.90;;;;;;5075413;28;20017;-69
2022/03/07 05:19:34;;;;;;;24.55;12.40;;;1.20;99.90;;;;;;5075031;28;20025;-69
2022/03/07 05:22:00;;;;;;;22.02;12.27;;;1.10;99.90;;;;;;5075162;28;20450;-69
2022/03/07 05:24:26;;;;;;;22.73;12.60;;;1.30;99.90;;;;;;5074965;28;20090;-70
2022/03/07 05:26:53;;;;;;;18.48;11.23;;;1.10;99.90;;;;;;5074787;28;20423;-69
2022/03/07 05:29:19;;;;;;;26.00;12.50;;;0.90;99.90;;;;;;5074893;28;20078;-69
2022/03/07 05:31:45;;;;;;;36.85;11.90;;;1.10;99.90;;;;;;5075061;28;20028;-69
2022/03/07 05:34:11;;;;;;;19.48;11.30;;;1.00;99.90;;;;;;5074903;28;20047;-69
2022/03/07 05:36:37;;;;;;;26.48;13.00;;;0.90;99.90;;;;;;5074622;28;20084;-69
2022/03/07 05:39:03;;;;;;;23.10;12.50;;;1.00;99.90;;;;;;5074808;28;20033;-69
2022/03/07 05:41:29;;;;;;;25.65;13.77;;;0.90;99.90;;;;;;5074773;28;20028;-69
2022/03/07 05:43:55;;;;;;;24.83;12.82;;;0.70;99.90;;;;;;5074707;28;20039;-69
2022/03/07 05:46:20;;;;;;;33.55;13.75;;;0.70;99.90;;;;;;5074753;28;20033;-69
2022/03/07 05:48:46;;;;;;;30.35;13.52;;;0.80;99.90;;;;;;5073922;28;20157;-69
2022/03/07 05:51:12;;;;;;;23.55;12.93;;;0.80;99.90;;;;;;5074507;28;20038;-70
2022/03/07 05:53:39;;;;;;;24.35;12.90;;;0.70;99.90;;;;;;5074373;28;20440;-69
2022/03/07 05:56:05;;;;;;;30.67;14.07;;;0.70;99.90;;;;;;5074163;28;20020;-69
2022/03/07 05:58:31;;;;;;;23.10;12.50;;;0.70;99.90;;;;;;5074278;28;20028;-70
2022/03/07 06:00:56;;;;;;;28.48;14.32;;;0.80;99.90;;;;;;5074540;28;20029;-69
2022/03/07 06:03:22;;;;;;;21.38;13.32;;;0.90;99.90;;;;;;5074392;28;20035;-69
2022/03/07 06:05:48;;;;;;;24.92;13.73;;;1.00;99.90;;;;;;5074262;28;20025;-69
2022/03/07 06:08:13;;;;;;;26.67;14.07;;;1.00;99.90;;;;;;5074349;28;20108;-69
2022/03/07 06:10:39;;;;;;;30.05;13.88;;;1.00;99.90;;;;;;5073717;28;20046;-69
2022/03/07 06:13:05;;;;;;;25.55;13.50;;;1.20;99.90;;;;;;5056064;28;20041;-69
2022/03/07 06:15:31;;;;;;;20.23;13.52;;;1.10;99.90;;;;;;5074173;28;20107;-69
2022/03/07 06:18:00;;;;;;;28.20;14.68;;;1.30;99.90;;;;;;5074010;28;20028;-70
2022/03/07 06:20:27;;;;;;;24.33;14.02;;;1.60;99.90;;;;;;5073921;28;20032;-70
2022/03/07 06:22:54;;;;;;;28.58;14.70;;;1.70;99.90;;;;;;5073889;28;20041;-69
2022/03/07 06:25:20;;;;;;;22.95;14.60;;;1.50;99.90;;;;;;5055535;28;20035;-69
2022/03/07 06:27:46;;;;;;;27.75;14.23;;;1.60;99.90;;;;;;5073961;28;20020;-69
2022/03/07 06:30:12;;;;;;;23.60;13.95;;;1.30;99.90;;;;;;5056022;28;20459;-69
2022/03/07 06:32:38;;;;;;;23.95;13.80;;;1.40;99.90;;;;;;5073741;28;20050;-69
2022/03/07 06:35:05;;;;;;;33.17;14.90;;;1.20;99.90;;;;;;5073629;28;20040;-69
2022/03/07 06:37:31;;;;;;;38.63;20.05;;;1.30;99.90;;;;;;5055882;28;20059;-69
2022/03/07 06:39:57;;;;;;;29.90;16.67;;;1.00;99.90;;;;;;5072935;28;20052;-69
2022/03/07 06:42:23;;;;;;;33.28;15.15;;;1.00;99.90;;;;;;5073576;28;20027;-69
2022/03/07 06:44:49;;;;;;;34.75;14.15;;;1.20;99.90;;;;;;5073412;28;20028;-69
2022/03/07 06:47:16;;;;;;;23.80;14.00;;;1.20;99.90;;;;;;5073476;28;20038;-69
2022/03/07 06:49:45;;;;;;;25.00;13.88;;;1.10;99.90;;;;;;5073335;28;20033;-69
2022/03/07 06:52:12;;;;;;;26.80;14.80;;;1.00;99.90;;;;;;5073312;28;20488;-69
2022/03/07 06:54:37;;;;;;;29.35;17.10;;;1.10;99.90;;;;;;5072509;28;20048;-69
2022/03/07 06:57:03;;;;;;;32.90;15.25;;;1.30;99.90;;;;;;5062063;28;20369;-69
2022/03/07 06:59:29;;;;;;;32.50;13.93;;;1.40;99.90;;;;;;5072683;28;20032;-69
2022/03/07 07:01:55;;;;;;;36.47;14.57;;;1.40;99.90;;;;;;5058816;28;20021;-69
2022/03/07 07:04:21;;;;;;;26.83;13.50;;;1.60;99.90;;;;;;5052579;28;20039;-71
2022/03/07 07:06:47;;;;;;;28.65;13.05;;;1.50;99.90;;;;;;5052442;28;20354;-69
2022/03/07 07:09:13;;;;;;;31.55;13.43;;;1.50;99.90;;;;;;5052357;28;20103;-69
2022/03/07 07:11:38;;;;;;;18.63;12.15;;;1.70;99.90;;;;;;5068839;28;20031;-69
2022/03/07 07:14:04;;;;;;;26.42;12.77;;;1.70;99.90;;;;;;5054409;28;20036;-69
2022/03/07 07:16:30;;;;;;;22.20;11.18;;;1.70;99.90;;;;;;5072410;28;20024;-69
2022/03/07 07:18:55;;;;;;;18.83;10.85;;;1.70;99.90;;;;;;5072376;28;20032;-69
2022/03/07 07:21:21;;;;;;;23.83;11.90;;;1.80;99.90;;;;;;5072342;28;20064;-69
2022/03/07 07:23:47;;;;;;;18.65;11.82;;;1.90;99.90;;;;;;5054155;28;20078;-70
2022/03/07 07:26:13;;;;;;;23.40;11.75;;;2.10;99.90;;;;;;5072092;28;20033;-69
2022/03/07 07:28:38;;;;;;;20.15;11.30;;;2.20;99.90;;;;;;5072443;28;20485;-69
2022/03/07 07:31:04;;;;;;;21.65;11.02;;;2.20;99.90;;;;;;5072050;28;20366;-70
2022/03/07 07:33:30;;;;;;;17.63;9.52;;;2.30;99.90;;;;;;5072363;28;20032;-69
2022/03/07 07:35:56;;;;;;;15.38;10.95;;;2.50;99.90;;;;;;5072146;28;20020;-69
2022/03/07 07:38:22;;;;;;;16.13;9.80;;;2.30;99.90;;;;;;5071781;28;20358;-69
2022/03/07 07:40:49;;;;;;;22.42;10.88;;;2.30;99.90;;;;;;5072026;28;20036;-69
2022/03/07 07:43:16;;;;;;;19.27;10.13;;;2.40;99.90;;;;;;5054441;28;20040;-71
2022/03/07 07:45:42;;;;;;;25.40;12.00;;;2.50;99.90;;;;;;5072205;28;20048;-69
2022/03/07 07:48:07;;;;;;;15.85;9.75;;;2.40;99.90;;;;;;5071750;28;20028;-70
2022/03/07 07:50:33;;;;;;;17.17;9.80;;;2.50;99.90;;;;;;5054237;28;20423;-68
2022/03/07 07:52:59;;;;;;;17.02;10.32;;;2.60;99.90;;;;;;5072322;28;20468;-69
2022/03/07 07:55:25;;;;;;;17.38;9.70;;;2.50;99.90;;;;;;5071910;28;20067;-69
2022/03/07 07:57:51;;;;;;;16.27;10.13;;;2.50;99.90;;;;;;5071807;28;20074;-69
2022/03/07 08:00:20;;;;;;;23.38;10.50;;;2.60;99.90;;;;;;5054063;28;20071;-69
2022/03/07 08:02:50;;;;;;;15.73;9.30;;;2.60;99.90;;;;;;5054049;28;20465;-69
2022/03/07 08:05:20;;;;;;;18.92;9.65;;;2.70;99.90;;;;;;5071901;28;20024;-69
2022/03/07 08:07:46;;;;;;;20.38;9.57;;;2.70;99.90;;;;;;5071586;28;20048;-69
2022/03/07 08:10:14;;;;;;;17.67;9.82;;;2.70;99.90;;;;;;5071721;28;20047;-69
2022/03/07 08:12:40;;;;;;;15.80;8.88;;;2.90;99.90;;;;;;5073851;28;20028;-69
2022/03/07 08:15:11;;;;;;;16.45;9.25;;;3.10;99.90;;;;;;5075801;28;20036;-69
2022/03/07 08:17:46;;;;;;;17.80;8.43;;;3.20;99.90;;;;;;5075682;28;20033;-69
2022/03/07 08:20:18;;;;;;;15.30;8.95;;;3.20;99.90;;;;;;5075350;28;20494;-69
2022/03/07 08:22:44;;;;;;;14.05;9.43;;;3.30;99.90;;;;;;5075571;28;20033;-69
2022/03/07 08:25:11;;;;;;;18.85;8.20;;;3.30;99.90;;;;;;5074920;28;20536;-70
2022/03/07 08:27:37;;;;;;;13.88;8.85;;;3.20;99.90;;;;;;5075757;28;20020;-71
2022/03/07 08:30:08;;;;;;;16.13;9.18;;;3.30;99.90;;;;;;5076122;28;20102;-70
2022/03/07 08:32:35;;;;;;;13.80;8.85;;;3.40;99.90;;;;;;5075469;28;20032;-70
2022/03/07 08:35:01;;;;;;;13.27;9.13;;;3.30;99.90;;;;;;5075191;28;20113;-70
2022/03/07 08:37:27;;;;;;;17.35;9.07;;;3.50;99.90;;;;;;5075918;28;20469;-69
2022/03/07 08:39:53;;;;;;;16.10;8.07;;;3.50;99.80;;;;;;5075899;28;20120;-70
2022/03/07 08:42:19;;;;;;;12.95;7.72;;;3.70;99.40;;;;;;5075776;28;20024;-70
2022/03/07 08:44:45;;;;;;;12.50;7.30;;;4.20;98.00;;;;;;5075771;28;20107;-69
2022/03/07 08:47:11;;;;;;;11.52;6.47;;;4.20;96.60;;;;;;5075684;28;20025;-70
2022/03/07 08:49:38;;;;;;;10.85;6.88;;;3.80;96.40;;;;;;5075596;28;20032;-70
2022/03/07 08:52:04;;;;;;;10.07;6.75;;;3.90;95.90;;;;;;5075309;28;20020;-70
2022/03/07 08:54:30;;;;;;;21.75;5.80;;;4.10;97.10;;;;;;5075745;28;20046;-69
2022/03/07 08:56:55;;;;;;;14.50;5.85;;;4.10;94.90;;;;;;5075471;28;20100;-69
2022/03/07 08:59:24;;;;;;;17.65;7.00;;;4.20;95.60;;;;;;5075632;28;20443;-70
2022/03/07 09:01:50;;;;;;;12.95;6.35;;;4.50;95.70;;;;;;5057636;28;20017;-70
2022/03/07 09:04:16;;;;;;;15.95;7.00;;;4.50;95.00;;;;;;5074846;28;20029;-70
2022/03/07 09:06:43;;;;;;;13.25;5.90;;;4.50;95.10;;;;;;5075244;28;20025;-70
2022/03/07 09:09:09;;;;;;;16.95;7.72;;;4.60;94.90;;;;;;5075249;28;20025;-70
2022/03/07 09:11:35;;;;;;;13.77;7.35;;;4.50;95.00;;;;;;5075322;28;20032;-71
2022/03/07 09:14:01;;;;;;;11.95;7.15;;;4.60;94.70;;;;;;5057316;28;20508;-70
2022/03/07 09:16:26;;;;;;;9.93;6.60;;;4.90;94.90;;;;;;5075409;28;20024;-70
2022/03/07 09:18:52;;;;;;;15.77;6.90;;;4.80;94.00;;;;;;5075186;28;20485;-70
2022/03/07 09:21:18;;;;;;;11.45;6.97;;;5.00;94.60;;;;;;5075060;28;20032;-71
2022/03/07 09:23:46;;;;;;;12.27;6.20;;;4.70;94.10;;;;;;5056179;28;20115;-70
2022/03/07 09:26:13;;;;;;;12.27;6.60;;;5.00;94.00;;;;;;5074941;28;20467;-70
2022/03/07 09:28:38;;;;;;;9.65;5.80;;;5.00;93.80;;;;;;5074871;28;20037;-70
2022/03/07 09:31:06;;;;;;;11.68;5.45;;;5.00;93.40;;;;;;5075101;28;20032;-70
2022/03/07 09:33:32;;;;;;;12.35;6.85;;;5.10;93.30;;;;;;5074884;28;20025;-71
2022/03/07 09:35:59;;;;;;;10.15;5.32;;;5.40;93.10;;;;;;5057263;28;20046;-70
2022/03/07 09:38:27;;;;;;;17.35;5.80;;;5.50;92.50;;;;;;5075059;28;20086;-70
2022/03/07 09:40:54;;;;;;;13.18;5.45;;;5.60;92.50;;;;;;5074806;28;20036;-70
2022/03/07 09:43:20;;;;;;;7.13;5.10;;;5.90;92.80;;;;;;5057032;28;20024;-70
2022/03/07 09:45:46;;;;;;;10.52;5.25;;;6.00;92.30;;;;;;5074717;28;20548;-70
2022/03/07 09:48:12;;;;;;;11.18;5.10;;;6.00;92.00;;;;;;5074404;28;20021;-71
2022/03/07 09:50:40;;;;;;;7.18;4.75;;;6.10;91.80;;;;;;5074627;28;20047;-70
2022/03/07 09:53:08;;;;;;;8.38;4.90;;;6.40;91.60;;;;;;5074330;28;20086;-69
2022/03/07 09:55:35;;;;;;;8.95;4.45;;;6.50;91.50;;;;;;5074621;28;20484;-70
2022/03/07 09:58:01;;;;;;;7.05;4.93;;;6.50;91.30;;;;;;5074541;28;20564;-70
2022/03/07 10:00:26;;;;;;;11.77;5.28;;;6.40;91.30;;;;;;5074434;28;20056;-70
2022/03/07 10:02:57;;;;;;;11.40;5.05;;;6.30;91.40;;;;;;5073809;28;20469;-70
2022/03/07 10:05:34;;;;;;;7.38;4.50;;;6.30;90.90;;;;;;5074395;28;20024;-70
2022/03/07 10:08:00;;;;;;;8.80;4.47;;;6.30;91.20;;;;;;5074316;28;20032;-71
2022/03/07 10:10:40;;;;;;;7.68;4.97;;;6.30;90.90;;;;;;5056231;28;20476;-69
2022/03/07 10:13:14;;;;;;;6.93;4.57;;;6.30;90.90;;;;;;5074236;28;20040;-70
2022/03/07 10:15:41;;;;;;;8.02;4.70;;;6.30;90.30;;;;;;5073850;28;20065;-70
2022/03/07 10:18:16;;;;;;;10.70;5.03;;;6.40;90.80;;;;;;5055915;28;20033;-70
2022/03/07 10:20:53;;;;;;;7.85;5.00;;;6.60;91.20;;;;;;5073782;28;20064;-70
2022/03/07 10:23:20;;;;;;;8.55;4.68;;;6.90;91.10;;;;;;5056154;28;20389;-69
2022/03/07 10:25:46;;;;;;;11.45;5.00;;;6.90;90.80;;;;;;5073399;28;20111;-69
2022/03/07 10:28:13;;;;;;;8.30;5.10;;;6.90;90.90;;;;;;5073818;28;20028;-70
2022/03/07 10:30:39;;;;;;;6.93;5.07;;;7.40;90.30;;;;;;5073690;28;20028;-70
2022/03/07 10:33:10;;;;;;;6.95;4.68;;;7.80;90.10;;;;;;5056068;28;20108;-70
2022/03/07 10:35:42;;;;;;;11.23;4.95;;;7.90;88.60;;;;;;5073435;28;20040;-70
2022/03/07 10:38:14;;;;;;;9.00;4.72;;;8.10;90.00;;;;;;5055929;28;20365;-70
2022/03/07 10:40:42;;;;;;;16.75;4.65;;;8.50;88.50;;;;;;5073454;28;20036;-70
2022/03/07 10:43:09;;;;;;;8.75;4.57;;;8.40;87.00;;;;;;5073992;28;20377;-70
2022/03/07 10:45:56;;;;;;;7.40;4.00;;;8.70;87.90;;;;;;5073008;28;20032;-70
2022/03/07 10:48:24;;;;;;;7.35;4.13;;;8.20;87.00;;;;;;5073221;28;20108;-70
2022/03/07 10:50:53;;;;;;;6.53;4.47;;;8.40;86.90;;;;;;5073276;28;20032;-70
2022/03/07 10:53:20;;;;;;;6.95;4.20;;;8.50;87.00;;;;;;5055318;28;20048;-69
2022/03/07 10:55:57;;;;;;;8.80;4.72;;;8.70;87.30;;;;;;5038645;28;20027;-70
2022/03/07 10:58:24;;;;;;;8.10;5.03;;;8.90;85.30;;;;;;5073185;28;20473;-70
2022/03/07 11:00:52;;;;;;;7.75;4.07;;;8.80;85.30;;;;;;5072783;28;20062;-70
2022/03/07 11:03:28;;;;;;;6.68;3.92;;;8.60;86.30;;;;;;5072938;28;20102;-70
2022/03/07 11:05:55;;;;;;;16.23;4.20;;;9.20;84.80;;;;;;5073181;28;20107;-69
2022/03/07 11:08:21;;;;;;;5.53;4.13;;;9.00;83.30;;;;;;5072925;28;20489;-71
2022/03/07 11:10:51;;;;;;;5.57;3.80;;;9.10;84.60;;;;;;5072681;28;20020;-69
2022/03/07 11:13:19;;;;;;;6.78;3.70;;;8.90;84.50;;;;;;5072815;28;20028;-70
2022/03/07 11:15:46;;;;;;;7.45;3.63;;;9.40;84.10;;;;;;5072194;28;20107;-70
2022/03/07 11:18:14;;;;;;;6.85;4.15;;;9.50;83.90;;;;;;5073009;28;20028;-70
2022/03/07 11:20:42;;;;;;;5.93;3.70;;;9.70;82.50;;;;;;5066326;28;20491;-71
2022/03/07 11:23:12;;;;;;;4.80;3.75;;;9.80;83.40;;;;;;5072360;28;20071;-70
2022/03/07 11:25:39;;;;;;;6.45;3.90;;;9.90;81.30;;;;;;5071764;28;20035;-71
2022/03/07 11:28:06;;;;;;;7.47;3.75;;;10.20;82.10;;;;;;5069176;28;20050;-70
2022/03/07 11:30:37;;;;;;;8.70;3.55;;;10.60;78.90;;;;;;5069050;28;20025;-71
2022/03/07 11:33:17;;;;;;;6.10;3.37;;;10.50;79.40;;;;;;5072141;28;20227;-70
2022/03/07 11:35:44;;;;;;;6.72;3.80;;;11.20;79.80;;;;;;5071607;28;20287;-71
2022/03/07 11:38:16;;;;;;;11.07;4.07;;;11.70;78.90;;;;;;5072151;28;20028;-70
2022/03/07 11:40:54;;;;;;;;;;;12.30;79.10;;;;;;5072922;28;20111;-70
2022/03/07 11:43:20;;;;;;;6.45;3.67;;;13.10;76.70;;;;;;5072116;28;19978;-70
2022/03/07 11:45:46;;;;;;;5.55;3.50;;;13.70;76.40;;;;;;5072076;28;20062;-68
2022/03/07 11:48:13;;;;;;;8.18;3.45;;;13.80;75.50;;;;;;5071961;28;20030;-71
2022/03/07 11:50:39;;;;;;;12.70;6.22;;;14.20;75.20;;;;;;5072250;28;20474;-68
2022/03/07 11:53:05;;;;;;;5.93;3.33;;;14.40;73.70;;;;;;5072346;28;20051;-69
2022/03/07 11:55:32;;;;;;;11.05;4.05;;;13.50;73.10;;;;;;5072487;28;20477;-68
2022/03/07 11:58:05;;;;;;;5.40;3.70;;;13.50;73.70;;;;;;5072176;28;20023;-69
2022/03/07 12:00:34;;;;;;;6.30;3.78;;;13.70;71.10;;;;;;5072447;28;20032;-69
2022/03/07 12:03:12;;;;;;;4.72;3.50;;;13.00;72.40;;;;;;5072146;28;20166;-68
2022/03/07 12:05:39;;;;;;;20.13;4.10;;;13.40;72.10;;;;;;5072277;28;20078;-70
2022/03/07 12:08:13;;;;;;;4.15;3.20;;;14.10;72.20;;;;;;5072147;28;20422;-68
2022/03/07 12:10:55;;;;;;;5.35;3.70;;;13.20;70.60;;;;;;5072327;28;20041;-68
2022/03/07 12:13:21;;;;;;;7.00;3.50;;;12.80;71.60;;;;;;5053691;28;20488;-69
2022/03/07 12:15:57;;;;;;;6.60;3.63;;;13.20;72.30;;;;;;5054208;28;20036;-68
2022/03/07 12:18:23;;;;;;;5.28;3.47;;;14.10;71.60;;;;;;5072051;28;20032;-68
2022/03/07 12:20:55;;;;;;;6.13;3.60;;;14.30;70.90;;;;;;5054038;28;20469;-69
2022/03/07 12:23:26;;;;;;;5.53;3.58;;;14.80;70.10;;;;;;5072159;28;20507;-68
2022/03/07 12:25:58;;;;;;;5.82;3.28;;;15.10;70.20;;;;;;5072149;28;20037;-69
2022/03/07 12:28:31;;;;;;;7.85;3.42;;;15.40;69.80;;;;;;5071748;28;20068;-69
2022/03/07 12:30:57;;;;;;;5.85;3.13;;;15.30;69.30;;;;;;5072286;28;20032;-68
2022/03/07 12:33:24;;;;;;;8.40;3.50;;;14.90;69.80;;;;;;5072184;28;20033;-68
2022/03/07 12:35:59;;;;;;;6.13;3.20;;;16.00;68.70;;;;;;5072198;28;20028;-68
2022/03/07 12:38:25;;;;;;;7.25;4.20;;;16.10;68.00;;;;;;5072053;28;20029;-68
2022/03/07 12:40:51;;;;;;;5.95;3.22;;;16.20;67.20;;;;;;5072440;28;20025;-68
2022/03/07 12:43:17;;;;;;;5.97;3.55;;;15.20;67.10;;;;;;5071948;28;20031;-69